sensor_id;sensor_type;location;lat;lon;timestamp;pressure;altitude;pressure_sealevel;temperature;humidity
71907;BME280;59781;52.090;5.030;2023-02-16T00:00:21;102300.50;;;5.48;89.89
71907;BME280;59781;52.090;5.030;2023-02-16T00:02:51;102300.69;;;5.33;92.57
71907;BME280;59781;52.090;5.030;2023-02-16T00:05:26;102303.72;;;5.54;93.28
71907;BME280;59781;52.090;5.030;2023-02-16T00:07:54;102297.66;;;5.64;91.75
71907;BME280;59781;52.090;5.030;2023-02-16T00:10:22;102297.78;;;5.88;90.24
71907;BME280;59781;52.090;5.030;2023-02-16T00:12:50;102301.53;;;5.73;90.83
71907;BME280;59781;52.090;5.030;2023-02-16T00:15:34;102300.59;;;5.47;90.96
71907;BME280;59781;52.090;5.030;2023-02-16T00:18:01;102312.13;;;5.74;90.00
71907;BME280;59781;52.090;5.030;2023-02-16T00:20:30;102307.06;;;5.30;93.21
71907;BME280;59781;52.090;5.030;2023-02-16T00:22:57;102296.22;;;5.46;93.27
71907;BME280;59781;52.090;5.030;2023-02-16T00:25:24;102294.41;;;5.19;93.44
71907;BME280;59781;52.090;5.030;2023-02-16T00:27:50;102303.00;;;5.25;93.70
71907;BME280;59781;52.090;5.030;2023-02-16T00:30:19;102298.19;;;5.30;93.62
71907;BME280;59781;52.090;5.030;2023-02-16T00:32:48;102295.47;;;5.17;94.66
71907;BME280;59781;52.090;5.030;2023-02-16T00:35:16;102296.53;;;5.41;93.23
71907;BME280;59781;52.090;5.030;2023-02-16T00:37:45;102295.03;;;5.50;93.88
71907;BME280;59781;52.090;5.030;2023-02-16T00:40:14;102298.19;;;5.03;94.59
71907;BME280;59781;52.090;5.030;2023-02-16T00:42:46;102294.56;;;5.04;95.93
71907;BME280;59781;52.090;5.030;2023-02-16T00:45:19;102293.94;;;5.40;94.17
71907;BME280;59781;52.090;5.030;2023-02-16T00:47:49;102292.06;;;5.15;95.19
71907;BME280;59781;52.090;5.030;2023-02-16T00:52:59;102292.25;;;5.12;95.04
71907;BME280;59781;52.090;5.030;2023-02-16T00:55:33;102286.31;;;5.21;94.75
71907;BME280;59781;52.090;5.030;2023-02-16T00:58:12;102295.72;;;5.00;96.85
71907;BME280;59781;52.090;5.030;2023-02-16T01:00:52;102285.91;;;5.27;94.53
71907;BME280;59781;52.090;5.030;2023-02-16T01:03:23;102276.28;;;5.25;95.61
71907;BME280;59781;52.090;5.030;2023-02-16T01:05:53;102283.19;;;5.41;94.98
71907;BME280;59781;52.090;5.030;2023-02-16T01:08:40;102279.84;;;5.11;95.30
71907;BME280;59781;52.090;5.030;2023-02-16T01:11:25;102272.88;;;5.23;95.39
71907;BME280;59781;52.090;5.030;2023-02-16T01:13:53;102272.03;;;5.35;94.23
71907;BME280;59781;52.090;5.030;2023-02-16T01:16:24;102264.38;;;5.43;94.09
71907;BME280;59781;52.090;5.030;2023-02-16T01:18:57;102277.84;;;5.14;95.57
71907;BME280;59781;52.090;5.030;2023-02-16T01:21:23;102271.66;;;5.14;95.99
71907;BME280;59781;52.090;5.030;2023-02-16T01:23:49;102261.84;;;5.27;94.63
71907;BME280;59781;52.090;5.030;2023-02-16T01:26:17;102259.41;;;5.24;95.00
71907;BME280;59781;52.090;5.030;2023-02-16T01:28:45;102259.66;;;5.46;93.74
71907;BME280;59781;52.090;5.030;2023-02-16T01:31:15;102262.22;;;5.48;94.76
71907;BME280;59781;52.090;5.030;2023-02-16T01:33:42;102266.97;;;5.57;93.58
71907;BME280;59781;52.090;5.030;2023-02-16T01:36:38;102261.41;;;5.60;93.21
71907;BME280;59781;52.090;5.030;2023-02-16T01:39:08;102256.09;;;5.73;92.42
71907;BME280;59781;52.090;5.030;2023-02-16T01:44:53;102250.72;;;5.60;93.41
71907;BME280;59781;52.090;5.030;2023-02-16T01:47:45;102254.31;;;5.34;94.40
71907;BME280;59781;52.090;5.030;2023-02-16T01:50:24;102260.75;;;5.57;94.05
71907;BME280;59781;52.090;5.030;2023-02-16T01:53:05;102252.75;;;5.57;93.48
71907;BME280;59781;52.090;5.030;2023-02-16T01:55:44;102253.59;;;5.57;93.85
71907;BME280;59781;52.090;5.030;2023-02-16T02:01:37;102238.47;;;5.70;91.55
71907;BME280;59781;52.090;5.030;2023-02-16T02:04:21;102236.38;;;5.48;93.04
71907;BME280;59781;52.090;5.030;2023-02-16T02:07:17;102237.00;;;6.04;91.58
71907;BME280;59781;52.090;5.030;2023-02-16T02:10:06;102236.72;;;5.57;93.04
71907;BME280;59781;52.090;5.030;2023-02-16T02:12:58;102241.03;;;5.72;92.37
71907;BME280;59781;52.090;5.030;2023-02-16T02:15:30;102237.16;;;5.89;92.46
71907;BME280;59781;52.090;5.030;2023-02-16T02:17:57;102237.06;;;6.28;90.07
71907;BME280;59781;52.090;5.030;2023-02-16T02:30:19;102225.44;;;6.29;90.31
71907;BME280;59781;52.090;5.030;2023-02-16T02:36:28;102227.13;;;6.30;89.56
71907;BME280;59781;52.090;5.030;2023-02-16T02:43:34;102217.06;;;5.70;92.25
71907;BME280;59781;52.090;5.030;2023-02-16T02:46:15;102212.19;;;6.02;90.79
71907;BME280;59781;52.090;5.030;2023-02-16T02:49:03;102217.19;;;5.82;92.48
71907;BME280;59781;52.090;5.030;2023-02-16T02:51:29;102201.88;;;6.09;91.04
71907;BME280;59781;52.090;5.030;2023-02-16T02:54:17;102201.22;;;6.18;90.54
71907;BME280;59781;52.090;5.030;2023-02-16T02:57:19;102193.22;;;5.67;93.01
71907;BME280;59781;52.090;5.030;2023-02-16T03:00:38;102191.19;;;5.84;91.96
71907;BME280;59781;52.090;5.030;2023-02-16T03:06:16;102188.72;;;5.68;92.88
71907;BME280;59781;52.090;5.030;2023-02-16T03:08:52;102186.72;;;5.71;93.61
71907;BME280;59781;52.090;5.030;2023-02-16T03:11:26;102187.44;;;5.73;92.77
71907;BME280;59781;52.090;5.030;2023-02-16T03:14:18;102179.00;;;6.05;92.95
71907;BME280;59781;52.090;5.030;2023-02-16T03:16:54;102187.00;;;6.18;90.29
71907;BME280;59781;52.090;5.030;2023-02-16T03:19:43;102183.81;;;6.13;91.44
71907;BME280;59781;52.090;5.030;2023-02-16T03:22:33;102175.06;;;6.47;89.79
71907;BME280;59781;52.090;5.030;2023-02-16T03:25:27;102174.19;;;5.97;92.22
71907;BME280;59781;52.090;5.030;2023-02-16T03:28:19;102170.44;;;5.74;93.30
71907;BME280;59781;52.090;5.030;2023-02-16T03:31:09;102178.44;;;5.87;92.36
71907;BME280;59781;52.090;5.030;2023-02-16T03:33:39;102175.72;;;6.01;92.63
71907;BME280;59781;52.090;5.030;2023-02-16T03:36:07;102179.75;;;6.20;91.41
71907;BME280;59781;52.090;5.030;2023-02-16T03:38:34;102173.97;;;6.13;91.36
71907;BME280;59781;52.090;5.030;2023-02-16T03:41:00;102178.22;;;6.28;89.61
71907;BME280;59781;52.090;5.030;2023-02-16T03:43:27;102188.75;;;6.06;91.24
71907;BME280;59781;52.090;5.030;2023-02-16T03:45:53;102180.03;;;6.28;91.12
71907;BME280;59781;52.090;5.030;2023-02-16T03:48:19;102188.56;;;6.46;89.45
71907;BME280;59781;52.090;5.030;2023-02-16T03:50:45;102194.06;;;6.19;89.83
71907;BME280;59781;52.090;5.030;2023-02-16T03:53:11;102182.22;;;6.59;89.26
71907;BME280;59781;52.090;5.030;2023-02-16T03:55:40;102195.34;;;6.26;90.09
71907;BME280;59781;52.090;5.030;2023-02-16T03:58:11;102200.38;;;6.18;91.42
71907;BME280;59781;52.090;5.030;2023-02-16T04:00:39;102200.81;;;6.24;91.54
71907;BME280;59781;52.090;5.030;2023-02-16T04:03:07;102181.13;;;6.25;90.26
71907;BME280;59781;52.090;5.030;2023-02-16T04:05:33;102190.72;;;6.28;90.64
71907;BME280;59781;52.090;5.030;2023-02-16T04:07:59;102178.78;;;6.08;92.74
71907;BME280;59781;52.090;5.030;2023-02-16T04:10:26;102185.75;;;6.60;89.23
71907;BME280;59781;52.090;5.030;2023-02-16T04:12:52;102176.03;;;6.46;89.79
71907;BME280;59781;52.090;5.030;2023-02-16T04:15:23;102174.47;;;6.18;89.97
71907;BME280;59781;52.090;5.030;2023-02-16T04:17:54;102175.06;;;5.98;92.41
71907;BME280;59781;52.090;5.030;2023-02-16T04:20:23;102177.91;;;6.57;89.34
71907;BME280;59781;52.090;5.030;2023-02-16T04:22:51;102186.25;;;6.65;89.47
71907;BME280;59781;52.090;5.030;2023-02-16T04:25:19;102184.94;;;6.34;91.41
71907;BME280;59781;52.090;5.030;2023-02-16T04:27:46;102185.69;;;6.36;90.76
71907;BME280;59781;52.090;5.030;2023-02-16T04:30:19;102201.34;;;6.29;91.20
71907;BME280;59781;52.090;5.030;2023-02-16T04:32:48;102189.28;;;6.84;89.18
71907;BME280;59781;52.090;5.030;2023-02-16T04:35:15;102186.53;;;6.49;90.29
71907;BME280;59781;52.090;5.030;2023-02-16T04:37:41;102191.97;;;6.48;89.92
71907;BME280;59781;52.090;5.030;2023-02-16T04:40:08;102202.94;;;6.32;91.28
71907;BME280;59781;52.090;5.030;2023-02-16T04:42:41;102195.59;;;6.59;90.52
71907;BME280;59781;52.090;5.030;2023-02-16T04:45:10;102197.78;;;6.42;90.84
71907;BME280;59781;52.090;5.030;2023-02-16T04:47:36;102189.63;;;6.43;91.30
71907;BME280;59781;52.090;5.030;2023-02-16T04:50:02;102193.66;;;6.61;91.64
71907;BME280;59781;52.090;5.030;2023-02-16T04:52:29;102186.72;;;6.83;89.78
71907;BME280;59781;52.090;5.030;2023-02-16T04:54:55;102181.19;;;6.73;90.26
71907;BME280;59781;52.090;5.030;2023-02-16T04:57:20;102181.53;;;6.19;91.63
71907;BME280;59781;52.090;5.030;2023-02-16T04:59:48;102176.31;;;6.18;93.41
71907;BME280;59781;52.090;5.030;2023-02-16T05:02:14;102170.53;;;6.84;90.80
71907;BME280;59781;52.090;5.030;2023-02-16T05:04:39;102167.97;;;6.83;89.34
71907;BME280;59781;52.090;5.030;2023-02-16T05:07:06;102177.94;;;6.81;90.47
71907;BME280;59781;52.090;5.030;2023-02-16T05:09:32;102168.66;;;6.37;90.79
71907;BME280;59781;52.090;5.030;2023-02-16T05:11:58;102166.03;;;6.85;91.01
71907;BME280;59781;52.090;5.030;2023-02-16T05:14:42;102171.03;;;6.29;92.29
71907;BME280;59781;52.090;5.030;2023-02-16T05:17:17;102168.72;;;6.61;91.30
71907;BME280;59781;52.090;5.030;2023-02-16T05:19:47;102161.19;;;6.66;91.81
71907;BME280;59781;52.090;5.030;2023-02-16T05:22:15;102155.34;;;6.48;92.10
71907;BME280;59781;52.090;5.030;2023-02-16T05:24:42;102151.19;;;6.08;93.57
71907;BME280;59781;52.090;5.030;2023-02-16T05:27:12;102154.97;;;6.29;94.09
71907;BME280;59781;52.090;5.030;2023-02-16T05:29:39;102156.75;;;6.54;91.87
71907;BME280;59781;52.090;5.030;2023-02-16T05:32:05;102153.25;;;6.41;93.11
71907;BME280;59781;52.090;5.030;2023-02-16T05:34:31;102154.38;;;6.25;93.54
71907;BME280;59781;52.090;5.030;2023-02-16T05:36:57;102155.41;;;6.36;92.58
71907;BME280;59781;52.090;5.030;2023-02-16T05:39:23;102168.69;;;6.85;90.94
71907;BME280;59781;52.090;5.030;2023-02-16T05:41:48;102164.25;;;6.97;89.77
71907;BME280;59781;52.090;5.030;2023-02-16T05:44:15;102161.00;;;6.56;90.31
71907;BME280;59781;52.090;5.030;2023-02-16T05:46:42;102160.06;;;6.81;91.41
71907;BME280;59781;52.090;5.030;2023-02-16T05:49:09;102147.25;;;6.50;92.05
71907;BME280;59781;52.090;5.030;2023-02-16T05:51:36;102145.16;;;6.77;91.13
71907;BME280;59781;52.090;5.030;2023-02-16T05:54:02;102147.84;;;6.53;91.10
71907;BME280;59781;52.090;5.030;2023-02-16T05:56:28;102155.47;;;6.95;90.06
71907;BME280;59781;52.090;5.030;2023-02-16T05:58:54;102164.03;;;7.00;89.73
71907;BME280;59781;52.090;5.030;2023-02-16T06:01:20;102162.31;;;6.75;90.32
71907;BME280;59781;52.090;5.030;2023-02-16T06:03:46;102155.34;;;6.96;90.74
71907;BME280;59781;52.090;5.030;2023-02-16T06:06:13;102162.50;;;6.84;89.97
71907;BME280;59781;52.090;5.030;2023-02-16T06:08:39;102160.03;;;6.57;91.44
71907;BME280;59781;52.090;5.030;2023-02-16T06:11:06;102156.53;;;6.81;90.77
71907;BME280;59781;52.090;5.030;2023-02-16T06:13:52;102160.22;;;6.67;91.56
71907;BME280;59781;52.090;5.030;2023-02-16T06:16:24;102166.78;;;6.63;91.54
71907;BME280;59781;52.090;5.030;2023-02-16T06:18:50;102152.47;;;6.75;90.67
71907;BME280;59781;52.090;5.030;2023-02-16T06:21:16;102156.16;;;6.85;90.96
71907;BME280;59781;52.090;5.030;2023-02-16T06:23:42;102160.66;;;6.85;91.25
71907;BME280;59781;52.090;5.030;2023-02-16T06:26:07;102154.00;;;6.90;90.68
71907;BME280;59781;52.090;5.030;2023-02-16T06:28:33;102159.25;;;6.68;91.02
71907;BME280;59781;52.090;5.030;2023-02-16T06:30:59;102153.94;;;6.55;92.75
71907;BME280;59781;52.090;5.030;2023-02-16T06:33:25;102159.53;;;6.52;92.86
71907;BME280;59781;52.090;5.030;2023-02-16T06:35:50;102164.50;;;6.70;91.36
71907;BME280;59781;52.090;5.030;2023-02-16T06:38:16;102163.19;;;6.99;90.10
71907;BME280;59781;52.090;5.030;2023-02-16T06:40:42;102158.03;;;6.96;89.40
71907;BME280;59781;52.090;5.030;2023-02-16T06:43:07;102169.09;;;6.92;91.01
71907;BME280;59781;52.090;5.030;2023-02-16T06:45:33;102159.97;;;6.94;90.67
71907;BME280;59781;52.090;5.030;2023-02-16T06:47:59;102162.91;;;6.91;90.02
71907;BME280;59781;52.090;5.030;2023-02-16T06:50:24;102168.09;;;6.81;91.17
71907;BME280;59781;52.090;5.030;2023-02-16T06:52:50;102170.75;;;6.81;92.41
71907;BME280;59781;52.090;5.030;2023-02-16T06:55:16;102172.31;;;7.08;89.95
71907;BME280;59781;52.090;5.030;2023-02-16T06:57:42;102172.59;;;6.81;90.98
71907;BME280;59781;52.090;5.030;2023-02-16T07:00:08;102176.97;;;6.82;91.75
71907;BME280;59781;52.090;5.030;2023-02-16T07:02:34;102178.31;;;7.11;89.13
71907;BME280;59781;52.090;5.030;2023-02-16T07:05:00;102175.28;;;7.16;89.64
71907;BME280;59781;52.090;5.030;2023-02-16T07:07:26;102168.63;;;7.22;88.98
71907;BME280;59781;52.090;5.030;2023-02-16T07:09:52;102178.66;;;7.07;89.89
71907;BME280;59781;52.090;5.030;2023-02-16T07:12:18;102178.56;;;6.84;91.03
71907;BME280;59781;52.090;5.030;2023-02-16T07:14:43;102184.25;;;7.28;89.63
71907;BME280;59781;52.090;5.030;2023-02-16T07:17:09;102186.44;;;6.99;89.90
71907;BME280;59781;52.090;5.030;2023-02-16T07:19:35;102192.13;;;6.94;91.26
71907;BME280;59781;52.090;5.030;2023-02-16T07:22:02;102196.09;;;7.12;90.44
71907;BME280;59781;52.090;5.030;2023-02-16T07:24:29;102203.34;;;6.99;90.88
71907;BME280;59781;52.090;5.030;2023-02-16T07:26:55;102203.84;;;7.28;89.61
71907;BME280;59781;52.090;5.030;2023-02-16T07:29:21;102205.16;;;7.23;89.81
71907;BME280;59781;52.090;5.030;2023-02-16T07:31:47;102192.13;;;7.18;89.74
71907;BME280;59781;52.090;5.030;2023-02-16T07:34:13;102193.50;;;7.00;90.85
71907;BME280;59781;52.090;5.030;2023-02-16T07:36:39;102192.97;;;7.18;90.93
71907;BME280;59781;52.090;5.030;2023-02-16T07:39:05;102200.97;;;7.42;90.02
71907;BME280;59781;52.090;5.030;2023-02-16T07:41:30;102198.84;;;7.35;89.60
71907;BME280;59781;52.090;5.030;2023-02-16T07:44:01;102194.22;;;7.37;89.40
71907;BME280;59781;52.090;5.030;2023-02-16T07:46:27;102205.34;;;7.43;89.30
71907;BME280;59781;52.090;5.030;2023-02-16T07:48:53;102198.63;;;7.03;90.94
71907;BME280;59781;52.090;5.030;2023-02-16T07:51:24;102209.06;;;7.18;90.83
71907;BME280;59781;52.090;5.030;2023-02-16T07:53:52;102212.59;;;7.19;90.42
71907;BME280;59781;52.090;5.030;2023-02-16T07:56:20;102215.63;;;7.26;91.54
71907;BME280;59781;52.090;5.030;2023-02-16T07:58:50;102216.06;;;7.43;90.67
71907;BME280;59781;52.090;5.030;2023-02-16T08:01:17;102215.81;;;7.46;89.75
71907;BME280;59781;52.090;5.030;2023-02-16T08:03:43;102212.91;;;7.38;90.09
71907;BME280;59781;52.090;5.030;2023-02-16T08:06:09;102210.94;;;7.40;90.80
71907;BME280;59781;52.090;5.030;2023-02-16T08:08:37;102216.13;;;7.19;91.49
71907;BME280;59781;52.090;5.030;2023-02-16T08:11:10;102222.38;;;7.31;90.78
71907;BME280;59781;52.090;5.030;2023-02-16T08:13:39;102221.28;;;7.34;90.29
71907;BME280;59781;52.090;5.030;2023-02-16T08:16:15;102222.44;;;7.18;90.90
71907;BME280;59781;52.090;5.030;2023-02-16T08:18:43;102225.84;;;7.56;89.80
71907;BME280;59781;52.090;5.030;2023-02-16T08:21:15;102232.16;;;7.43;90.50
71907;BME280;59781;52.090;5.030;2023-02-16T08:23:56;102223.66;;;7.50;89.96
71907;BME280;59781;52.090;5.030;2023-02-16T08:26:38;102218.78;;;7.55;89.32
71907;BME280;59781;52.090;5.030;2023-02-16T08:29:06;102230.69;;;7.15;92.25
71907;BME280;59781;52.090;5.030;2023-02-16T08:31:35;102234.00;;;7.19;91.62
71907;BME280;59781;52.090;5.030;2023-02-16T08:34:03;102232.44;;;7.52;90.88
71907;BME280;59781;52.090;5.030;2023-02-16T08:36:33;102234.63;;;7.23;91.47
71907;BME280;59781;52.090;5.030;2023-02-16T08:39:07;102242.13;;;7.41;91.44
71907;BME280;59781;52.090;5.030;2023-02-16T08:41:37;102240.31;;;7.42;91.11
71907;BME280;59781;52.090;5.030;2023-02-16T08:44:05;102244.28;;;7.36;92.06
71907;BME280;59781;52.090;5.030;2023-02-16T08:46:33;102241.19;;;7.18;93.86
71907;BME280;59781;52.090;5.030;2023-02-16T08:49:00;102242.78;;;7.56;92.40
71907;BME280;59781;52.090;5.030;2023-02-16T08:51:28;102251.22;;;7.28;93.94
71907;BME280;59781;52.090;5.030;2023-02-16T08:53:58;102250.88;;;7.08;95.64
71907;BME280;59781;52.090;5.030;2023-02-16T08:56:26;102247.31;;;7.08;98.24
71907;BME280;59781;52.090;5.030;2023-02-16T08:58:54;102244.00;;;7.52;95.59
71907;BME280;59781;52.090;5.030;2023-02-16T09:01:21;102234.66;;;7.58;95.53
71907;BME280;59781;52.090;5.030;2023-02-16T09:03:48;102248.91;;;7.34;97.00
71907;BME280;59781;52.090;5.030;2023-02-16T09:06:17;102255.88;;;7.37;97.94
71907;BME280;59781;52.090;5.030;2023-02-16T09:08:50;102247.47;;;7.30;99.50
71907;BME280;59781;52.090;5.030;2023-02-16T09:11:18;102253.81;;;7.16;100.00
71907;BME280;59781;52.090;5.030;2023-02-16T09:13:44;102237.63;;;7.42;100.00
71907;BME280;59781;52.090;5.030;2023-02-16T09:16:17;102236.94;;;7.51;99.89
71907;BME280;59781;52.090;5.030;2023-02-16T09:18:47;102231.59;;;7.62;99.23
71907;BME280;59781;52.090;5.030;2023-02-16T09:21:16;102238.91;;;7.25;100.00
71907;BME280;59781;52.090;5.030;2023-02-16T09:23:45;102242.78;;;6.97;100.00
71907;BME280;59781;52.090;5.030;2023-02-16T09:26:14;102241.28;;;7.17;100.00
71907;BME280;59781;52.090;5.030;2023-02-16T09:28:42;102247.47;;;7.30;100.00
71907;BME280;59781;52.090;5.030;2023-02-16T09:31:11;102245.38;;;7.58;100.00
71907;BME280;59781;52.090;5.030;2023-02-16T09:33:40;102237.75;;;7.16;100.00
71907;BME280;59781;52.090;5.030;2023-02-16T09:36:10;102228.88;;;7.51;100.00
71907;BME280;59781;52.090;5.030;2023-02-16T09:38:37;102229.38;;;7.56;100.00
71907;BME280;59781;52.090;5.030;2023-02-16T09:41:14;102237.47;;;7.32;100.00
71907;BME280;59781;52.090;5.030;2023-02-16T09:47:02;102235.50;;;7.58;100.00
71907;BME280;59781;52.090;5.030;2023-02-16T09:49:35;102249.59;;;7.49;100.00
71907;BME280;59781;52.090;5.030;2023-02-16T09:55:03;102244.88;;;7.64;100.00
71907;BME280;59781;52.090;5.030;2023-02-16T09:58:01;102253.78;;;7.64;100.00
71907;BME280;59781;52.090;5.030;2023-02-16T10:00:47;102248.66;;;7.61;100.00
71907;BME280;59781;52.090;5.030;2023-02-16T10:06:40;102241.72;;;8.50;99.12
71907;BME280;59781;52.090;5.030;2023-02-16T10:09:20;102251.81;;;8.13;100.00
71907;BME280;59781;52.090;5.030;2023-02-16T10:12:09;102244.59;;;8.24;100.00
71907;BME280;59781;52.090;5.030;2023-02-16T10:14:56;102245.44;;;8.14;100.00
71907;BME280;59781;52.090;5.030;2023-02-16T10:17:37;102241.59;;;8.40;100.00
71907;BME280;59781;52.090;5.030;2023-02-16T10:20:13;102247.91;;;8.73;99.73
71907;BME280;59781;52.090;5.030;2023-02-16T10:28:16;102235.22;;;8.30;100.00
71907;BME280;59781;52.090;5.030;2023-02-16T10:31:00;102232.56;;;8.41;100.00
71907;BME280;59781;52.090;5.030;2023-02-16T10:34:02;102231.31;;;8.45;100.00
71907;BME280;59781;52.090;5.030;2023-02-16T10:37:01;102241.19;;;8.78;100.00
71907;BME280;59781;52.090;5.030;2023-02-16T10:40:13;102251.22;;;8.76;100.00
71907;BME280;59781;52.090;5.030;2023-02-16T10:45:42;102236.19;;;8.62;100.00
71907;BME280;59781;52.090;5.030;2023-02-16T10:48:16;102232.09;;;9.02;100.00
71907;BME280;59781;52.090;5.030;2023-02-16T10:50:58;102224.44;;;8.86;100.00
71907;BME280;59781;52.090;5.030;2023-02-16T10:53:38;102214.75;;;8.95;100.00
71907;BME280;59781;52.090;5.030;2023-02-16T10:56:38;102202.84;;;8.65;100.00
71907;BME280;59781;52.090;5.030;2023-02-16T10:59:29;102213.44;;;8.89;100.00
71907;BME280;59781;52.090;5.030;2023-02-16T11:04:54;102209.22;;;8.64;100.00
71907;BME280;59781;52.090;5.030;2023-02-16T11:07:24;102211.41;;;8.70;100.00
71907;BME280;59781;52.090;5.030;2023-02-16T11:09:54;102212.06;;;9.06;100.00
71907;BME280;59781;52.090;5.030;2023-02-16T11:12:33;102203.25;;;8.60;100.00
71907;BME280;59781;52.090;5.030;2023-02-16T11:15:22;102217.28;;;8.75;100.00
71907;BME280;59781;52.090;5.030;2023-02-16T11:18:05;102213.41;;;8.57;100.00
71907;BME280;59781;52.090;5.030;2023-02-16T11:23:25;102212.66;;;9.30;100.00
71907;BME280;59781;52.090;5.030;2023-02-16T11:28:37;102207.22;;;9.41;99.38
71907;BME280;59781;52.090;5.030;2023-02-16T11:31:37;102214.06;;;9.25;100.00
71907;BME280;59781;52.090;5.030;2023-02-16T11:34:22;102207.16;;;9.53;100.00
71907;BME280;59781;52.090;5.030;2023-02-16T11:37:05;102203.13;;;9.58;99.39
71907;BME280;59781;52.090;5.030;2023-02-16T11:39:49;102197.00;;;9.77;97.98
71907;BME280;59781;52.090;5.030;2023-02-16T11:48:24;102181.75;;;9.57;99.90
71907;BME280;59781;52.090;5.030;2023-02-16T11:51:03;102177.34;;;9.35;99.14
71907;BME280;59781;52.090;5.030;2023-02-16T11:53:33;102176.56;;;9.65;100.00
71907;BME280;59781;52.090;5.030;2023-02-16T11:56:24;102168.16;;;9.58;100.00
71907;BME280;59781;52.090;5.030;2023-02-16T11:59:21;102154.53;;;9.81;99.18
71907;BME280;59781;52.090;5.030;2023-02-16T12:07:39;102151.19;;;11.17;91.27
71907;BME280;59781;52.090;5.030;2023-02-16T12:10:21;102135.31;;;11.04;92.14
71907;BME280;59781;52.090;5.030;2023-02-16T12:21:47;102120.28;;;11.02;91.95
71907;BME280;59781;52.090;5.030;2023-02-16T12:24:29;102116.97;;;11.37;91.04
71907;BME280;59781;52.090;5.030;2023-02-16T12:27:41;102102.94;;;11.14;91.80
71907;BME280;59781;52.090;5.030;2023-02-16T12:39:48;102100.03;;;11.54;89.84
71907;BME280;59781;52.090;5.030;2023-02-16T12:42:53;102103.47;;;11.37;89.55
71907;BME280;59781;52.090;5.030;2023-02-16T12:45:30;102091.44;;;11.31;89.78
71907;BME280;59781;52.090;5.030;2023-02-16T12:48:04;102096.25;;;11.28;91.44
71907;BME280;59781;52.090;5.030;2023-02-16T12:50:55;102080.59;;;12.15;86.65
71907;BME280;59781;52.090;5.030;2023-02-16T12:53:40;102070.22;;;12.38;84.56
71907;BME280;59781;52.090;5.030;2023-02-16T12:56:31;102078.38;;;12.28;83.15
71907;BME280;59781;52.090;5.030;2023-02-16T13:01:54;102067.84;;;12.53;83.03
71907;BME280;59781;52.090;5.030;2023-02-16T13:04:36;102069.31;;;12.29;81.98
71907;BME280;59781;52.090;5.030;2023-02-16T13:07:20;102066.34;;;12.23;84.92
71907;BME280;59781;52.090;5.030;2023-02-16T13:10:23;102074.03;;;12.00;84.90
71907;BME280;59781;52.090;5.030;2023-02-16T13:13:17;102065.81;;;12.37;81.95
71907;BME280;59781;52.090;5.030;2023-02-16T13:15:54;102067.50;;;12.38;82.77
71907;BME280;59781;52.090;5.030;2023-02-16T13:18:31;102065.47;;;12.04;82.36
71907;BME280;59781;52.090;5.030;2023-02-16T13:24:45;102045.06;;;12.20;82.21
71907;BME280;59781;52.090;5.030;2023-02-16T13:39:10;102021.72;;;12.01;81.68
71907;BME280;59781;52.090;5.030;2023-02-16T13:44:49;102012.31;;;12.05;81.69
71907;BME280;59781;52.090;5.030;2023-02-16T13:47:30;102008.78;;;11.67;83.75
71907;BME280;59781;52.090;5.030;2023-02-16T13:50:08;101997.69;;;11.80;82.75
71907;BME280;59781;52.090;5.030;2023-02-16T13:52:51;102000.47;;;11.88;82.71
71907;BME280;59781;52.090;5.030;2023-02-16T14:05:33;101994.31;;;11.41;84.27
71907;BME280;59781;52.090;5.030;2023-02-16T14:08:09;101990.03;;;11.38;85.12
71907;BME280;59781;52.090;5.030;2023-02-16T14:18:48;101982.56;;;11.32;84.90
71907;BME280;59781;52.090;5.030;2023-02-16T14:24:01;101976.22;;;11.51;84.25
71907;BME280;59781;52.090;5.030;2023-02-16T14:26:30;101976.63;;;11.56;84.88
71907;BME280;59781;52.090;5.030;2023-02-16T14:29:14;101974.66;;;11.48;85.08
71907;BME280;59781;52.090;5.030;2023-02-16T14:31:52;101967.13;;;11.52;85.36
71907;BME280;59781;52.090;5.030;2023-02-16T14:34:33;101974.69;;;11.39;85.29
71907;BME280;59781;52.090;5.030;2023-02-16T14:39:47;101967.81;;;11.54;84.83
71907;BME280;59781;52.090;5.030;2023-02-16T14:42:26;101968.97;;;11.52;84.28
71907;BME280;59781;52.090;5.030;2023-02-16T14:45:28;101972.00;;;11.39;85.11
71907;BME280;59781;52.090;5.030;2023-02-16T14:48:29;101970.88;;;11.41;85.40
71907;BME280;59781;52.090;5.030;2023-02-16T15:00:50;101980.91;;;11.22;84.83
71907;BME280;59781;52.090;5.030;2023-02-16T15:03:22;101980.06;;;11.21;84.14
71907;BME280;59781;52.090;5.030;2023-02-16T15:05:56;101997.03;;;10.84;87.43
71907;BME280;59781;52.090;5.030;2023-02-16T15:08:33;101980.97;;;10.93;89.74
71907;BME280;59781;52.090;5.030;2023-02-16T15:11:14;101984.97;;;10.69;92.27
71907;BME280;59781;52.090;5.030;2023-02-16T15:13:46;101981.72;;;10.75;92.52
71907;BME280;59781;52.090;5.030;2023-02-16T15:16:20;101986.84;;;10.40;95.48
71907;BME280;59781;52.090;5.030;2023-02-16T15:18:50;101978.75;;;10.49;95.91
71907;BME280;59781;52.090;5.030;2023-02-16T15:21:21;101985.84;;;10.50;97.15
71907;BME280;59781;52.090;5.030;2023-02-16T15:23:56;101987.53;;;10.22;99.75
71907;BME280;59781;52.090;5.030;2023-02-16T15:26:33;101985.72;;;10.42;100.00
71907;BME280;59781;52.090;5.030;2023-02-16T15:29:24;101994.59;;;10.04;100.00
71907;BME280;59781;52.090;5.030;2023-02-16T15:31:52;101986.66;;;10.12;100.00
71907;BME280;59781;52.090;5.030;2023-02-16T15:34:34;101981.41;;;10.20;100.00
71907;BME280;59781;52.090;5.030;2023-02-16T15:37:20;101985.38;;;10.06;100.00
71907;BME280;59781;52.090;5.030;2023-02-16T15:39:52;101977.84;;;9.91;100.00
71907;BME280;59781;52.090;5.030;2023-02-16T15:42:26;101979.72;;;10.10;100.00
71907;BME280;59781;52.090;5.030;2023-02-16T15:44:55;101979.50;;;9.82;100.00
71907;BME280;59781;52.090;5.030;2023-02-16T15:47:24;101977.00;;;9.90;100.00
71907;BME280;59781;52.090;5.030;2023-02-16T15:49:51;101980.38;;;9.92;100.00
71907;BME280;59781;52.090;5.030;2023-02-16T15:54:56;101976.84;;;9.92;100.00